Time;durP1;ratioP1;P1;durP2;ratioP2;P2;SDS_P1;SDS_P2;PMS_P1;PMS_P2;Temp;Humidity;BMP_temperature;BMP_pressure;BME280_temperature;BME280_humidity;BME280_pressure;Samples;Min_cycle;Max_cycle;Signal;HPM_P1;HPM_P2
2021/05/17 00:02:08;;;;;;;2.28;1.35;;;11.40;99.90;;;;;;5109795;28;20024;-78
2021/05/17 00:04:34;;;;;;;1.70;1.40;;;11.40;99.90;;;;;;5111379;28;20397;-66
2021/05/17 00:07:08;;;;;;;2.25;1.17;;;11.20;99.90;;;;;;5109450;28;20035;-68
2021/05/17 00:09:35;;;;;;;2.05;1.25;;;11.30;99.90;;;;;;5111582;28;20027;-65
2021/05/17 00:12:02;;;;;;;2.22;1.30;;;11.30;99.90;;;;;;5109099;28;20141;-69
2021/05/17 00:14:29;;;;;;;1.20;1.10;;;11.30;99.90;;;;;;5109722;28;20058;-67
2021/05/17 00:16:55;;;;;;;2.15;1.35;;;11.40;99.90;;;;;;5108553;28;20451;-66
2021/05/17 00:19:22;;;;;;;1.95;1.33;;;11.40;99.90;;;;;;5111009;28;20032;-66
2021/05/17 00:21:48;;;;;;;3.88;1.48;;;11.40;99.90;;;;;;5109283;28;20035;-66
2021/05/17 00:24:16;;;;;;;3.95;1.40;;;11.40;99.90;;;;;;5112358;28;20051;-67
2021/05/17 00:26:42;;;;;;;2.42;1.05;;;11.40;99.90;;;;;;5113459;28;20028;-65
2021/05/17 00:29:11;;;;;;;3.78;1.10;;;11.20;99.90;;;;;;5111040;28;20023;-65
2021/05/17 00:31:38;;;;;;;3.83;1.13;;;11.30;99.90;;;;;;5112070;28;20023;-65
2021/05/17 00:34:06;;;;;;;1.48;1.02;;;11.40;99.90;;;;;;5111507;28;20092;-66
2021/05/17 00:36:33;;;;;;;2.65;1.10;;;11.50;99.90;;;;;;5110664;28;20329;-65
2021/05/17 00:39:04;;;;;;;3.53;1.10;;;11.50;99.90;;;;;;5111855;28;20074;-65
2021/05/17 00:41:30;;;;;;;1.42;0.80;;;11.40;99.90;;;;;;5110538;28;20042;-65
2021/05/17 00:43:56;;;;;;;5.38;1.40;;;11.40;99.90;;;;;;5111756;28;20027;-66
2021/05/17 00:46:24;;;;;;;1.92;1.20;;;11.40;99.90;;;;;;5110531;28;20164;-65
2021/05/17 00:48:51;;;;;;;2.67;0.98;;;11.40;99.90;;;;;;5109845;28;20072;-67
2021/05/17 00:51:17;;;;;;;1.20;0.80;;;11.40;99.90;;;;;;5111681;28;20031;-65
2021/05/17 00:53:43;;;;;;;1.15;0.95;;;11.40;99.90;;;;;;5110474;28;20026;-65
2021/05/17 00:56:10;;;;;;;3.05;1.42;;;11.40;99.90;;;;;;5110279;28;20031;-65
2021/05/17 00:58:36;;;;;;;2.03;1.05;;;11.40;99.90;;;;;;5111665;28;20119;-65
2021/05/17 01:01:03;;;;;;;3.65;0.95;;;11.30;99.90;;;;;;5110246;28;20430;-65
2021/05/17 01:03:30;;;;;;;1.65;1.08;;;11.30;99.90;;;;;;5110378;28;20031;-65
2021/05/17 01:05:56;;;;;;;1.60;1.10;;;11.30;99.90;;;;;;5109790;28;20035;-66
2021/05/17 01:08:24;;;;;;;2.20;1.20;;;11.20;99.90;;;;;;5110383;28;20038;-65
2021/05/17 01:10:54;;;;;;;2.25;1.17;;;11.10;99.90;;;;;;5111285;28;20418;-65
2021/05/17 01:13:20;;;;;;;2.40;1.00;;;11.10;99.90;;;;;;5110209;28;20502;-65
2021/05/17 01:15:51;;;;;;;2.20;1.02;;;11.10;99.90;;;;;;5111533;28;20031;-83
2021/05/17 01:18:17;;;;;;;1.63;0.80;;;11.10;99.90;;;;;;5111677;28;20078;-66
2021/05/17 01:20:46;;;;;;;2.75;0.98;;;11.00;99.90;;;;;;5111455;28;20127;-66
2021/05/17 01:25:51;;;;;;;5.32;1.10;;;11.00;99.90;;;;;;5111657;28;20024;-67
2021/05/17 01:28:23;;;;;;;0.95;0.73;;;10.90;99.90;;;;;;5088633;28;20036;-66
2021/05/17 01:30:55;;;;;;;2.92;1.15;;;10.90;99.90;;;;;;5071304;28;20078;-67
2021/05/17 01:33:21;;;;;;;1.95;0.80;;;10.80;99.90;;;;;;5071737;28;20036;-66
2021/05/17 01:35:48;;;;;;;2.80;0.93;;;10.80;99.90;;;;;;5071576;28;20118;-83
2021/05/17 01:38:16;;;;;;;3.35;0.80;;;10.90;99.90;;;;;;5071259;28;20050;-66
2021/05/17 01:40:47;;;;;;;1.65;0.70;;;10.90;99.90;;;;;;5088369;28;20074;-66
2021/05/17 01:43:15;;;;;;;5.18;1.65;;;10.90;99.90;;;;;;5071620;28;20063;-66
2021/05/17 01:45:42;;;;;;;2.47;1.08;;;10.90;99.90;;;;;;5088217;28;20115;-67
2021/05/17 01:48:08;;;;;;;2.35;1.33;;;10.90;99.90;;;;;;5087307;28;20279;-66
2021/05/17 01:50:35;;;;;;;1.25;0.95;;;11.00;99.90;;;;;;5088259;28;20069;-66
2021/05/17 01:53:01;;;;;;;0.93;0.80;;;10.80;99.90;;;;;;5087734;28;20040;-66
2021/05/17 01:55:28;;;;;;;1.95;1.10;;;10.80;99.90;;;;;;5071199;28;20024;-67
2021/05/17 01:58:12;;;;;;;1.50;0.50;;;10.70;99.90;;;;;;5087611;28;20036;-66
2021/05/17 02:00:40;;;;;;;0.63;0.38;;;10.80;99.90;;;;;;5110977;28;20136;-65
2021/05/17 02:03:08;;;;;;;0.93;0.45;;;10.80;99.90;;;;;;5110735;28;20058;-65
2021/05/17 02:05:34;;;;;;;0.85;0.40;;;10.90;99.90;;;;;;5109664;28;20042;-65
2021/05/17 02:08:02;;;;;;;0.30;0.20;;;10.90;99.90;;;;;;5109395;28;20023;-65
2021/05/17 02:10:28;;;;;;;2.13;0.38;;;10.90;99.90;;;;;;5110868;28;20015;-65
2021/05/17 02:12:56;;;;;;;0.88;0.28;;;10.80;99.90;;;;;;5110432;28;20092;-65
2021/05/17 02:15:22;;;;;;;2.75;0.20;;;10.80;99.90;;;;;;5109271;28;20050;-65
2021/05/17 02:18:01;;;;;;;1.95;0.30;;;10.70;99.90;;;;;;5110300;28;20044;-65
2021/05/17 02:20:31;;;;;;;1.80;0.40;;;10.70;99.90;;;;;;5110857;28;20112;-65
2021/05/17 02:22:58;;;;;;;2.45;0.55;;;10.80;99.90;;;;;;5109098;28;20023;-65
2021/05/17 02:25:24;;;;;;;0.40;0.20;;;10.80;99.90;;;;;;5109591;28;20066;-65
2021/05/17 02:27:50;;;;;;;0.32;0.13;;;10.70;99.90;;;;;;5110552;28;20419;-82
2021/05/17 02:30:17;;;;;;;1.42;0.50;;;10.70;99.90;;;;;;5109524;28;20073;-65
2021/05/17 02:32:43;;;;;;;0.95;0.35;;;10.70;99.90;;;;;;5110988;28;20099;-65
2021/05/17 02:35:10;;;;;;;2.60;0.20;;;10.70;99.90;;;;;;5109145;28;20042;-66
2021/05/17 02:37:36;;;;;;;1.85;0.40;;;10.70;99.90;;;;;;5109119;28;20365;-65
2021/05/17 02:40:04;;;;;;;0.63;0.20;;;10.70;99.90;;;;;;5108685;28;20172;-65
2021/05/17 02:42:33;;;;;;;0.30;0.15;;;10.60;99.90;;;;;;5110443;28;20024;-66
2021/05/17 02:44:59;;;;;;;1.85;0.30;;;10.60;99.90;;;;;;5109887;28;20111;-65
2021/05/17 02:47:25;;;;;;;0.57;0.30;;;10.70;99.90;;;;;;5110674;28;20111;-65
2021/05/17 02:49:53;;;;;;;1.75;0.38;;;10.70;99.90;;;;;;5110684;28;20437;-65
2021/05/17 02:52:19;;;;;;;1.40;0.28;;;10.70;99.90;;;;;;5109086;28;20522;-65
2021/05/17 02:55:00;;;;;;;2.08;0.25;;;10.70;99.90;;;;;;5110500;28;20027;-65
2021/05/17 02:57:41;;;;;;;0.50;0.30;;;10.70;99.90;;;;;;5110104;28;20113;-65
2021/05/17 03:00:18;;;;;;;1.73;0.40;;;10.60;99.90;;;;;;5110569;28;20322;-65
2021/05/17 03:03:00;;;;;;;1.52;0.40;;;10.60;99.90;;;;;;5112920;28;20031;-65
2021/05/17 03:05:34;;;;;;;0.85;0.40;;;10.60;99.90;;;;;;5112939;28;20111;-65
2021/05/17 03:08:04;;;;;;;0.80;0.30;;;10.70;99.90;;;;;;5112627;28;20472;-65
2021/05/17 03:10:31;;;;;;;0.60;0.50;;;10.70;99.90;;;;;;5112779;28;20019;-64
2021/05/17 03:13:02;;;;;;;0.60;0.47;;;10.70;99.90;;;;;;5114003;28;20044;-65
2021/05/17 03:15:28;;;;;;;2.75;0.50;;;10.70;99.90;;;;;;5114356;28;20079;-65
2021/05/17 03:17:56;;;;;;;0.77;0.50;;;10.70;99.90;;;;;;5111987;28;20147;-72
2021/05/17 03:20:23;;;;;;;2.25;0.50;;;10.70;99.90;;;;;;5114226;28;20107;-65
2021/05/17 03:22:50;;;;;;;2.28;0.60;;;10.80;99.90;;;;;;5112801;28;20047;-65
2021/05/17 03:25:19;;;;;;;2.70;0.90;;;10.70;99.90;;;;;;5113910;28;20028;-64
2021/05/17 03:27:45;;;;;;;1.58;0.90;;;10.80;99.90;;;;;;5114096;28;20050;-65
2021/05/17 03:30:11;;;;;;;3.50;0.57;;;10.90;99.90;;;;;;5113366;28;20524;-67
2021/05/17 03:32:37;;;;;;;2.28;0.82;;;10.80;99.90;;;;;;5114149;28;20020;-64
2021/05/17 03:35:04;;;;;;;3.58;0.90;;;10.90;99.90;;;;;;5112018;28;20380;-64
2021/05/17 03:37:29;;;;;;;3.58;1.33;;;10.90;99.90;;;;;;5112387;28;20504;-65
2021/05/17 03:39:55;;;;;;;1.52;1.02;;;10.80;99.90;;;;;;5111974;28;20122;-73
2021/05/17 03:42:21;;;;;;;1.60;1.30;;;10.90;99.90;;;;;;5114074;28;20027;-65
2021/05/17 03:44:47;;;;;;;1.77;1.02;;;10.90;99.90;;;;;;5112902;28;20114;-66
2021/05/17 03:47:12;;;;;;;1.40;0.88;;;10.90;99.90;;;;;;5113236;28;20038;-65
2021/05/17 03:49:38;;;;;;;2.03;1.30;;;10.90;99.90;;;;;;5112389;28;20119;-65
2021/05/17 03:52:04;;;;;;;2.60;1.45;;;10.90;99.90;;;;;;5111642;28;20024;-65
2021/05/17 03:54:30;;;;;;;1.40;1.17;;;10.90;99.90;;;;;;5113441;28;20053;-64
2021/05/17 03:56:57;;;;;;;4.60;1.63;;;10.90;99.90;;;;;;5112998;28;20083;-81
2021/05/17 03:59:23;;;;;;;2.25;2.00;;;10.90;99.90;;;;;;5113090;28;20087;-65
2021/05/17 04:01:49;;;;;;;5.78;1.80;;;10.90;99.90;;;;;;5113072;28;20034;-65
2021/05/17 04:04:16;;;;;;;4.20;1.75;;;11.00;99.90;;;;;;5111313;28;20027;-66
2021/05/17 04:06:59;;;;;;;3.45;1.92;;;11.00;99.90;;;;;;5112638;28;20445;-65
2021/05/17 04:14:53;;;;;;;4.57;1.30;;;11.10;99.90;;;;;;5113139;28;20062;-64
2021/05/17 04:17:18;;;;;;;2.95;1.05;;;11.20;99.90;;;;;;5111820;28;20087;-64
2021/05/17 04:19:44;;;;;;;22.30;2.17;;;11.20;99.90;;;;;;5111444;28;20020;-64
2021/05/17 04:22:10;;;;;;;3.33;1.38;;;11.10;99.90;;;;;;5110955;28;20020;-65
2021/05/17 04:24:36;;;;;;;3.15;1.52;;;11.20;99.90;;;;;;5111188;28;20034;-65
2021/05/17 04:27:01;;;;;;;2.58;1.48;;;11.20;99.90;;;;;;5112425;28;20035;-66
2021/05/17 04:29:27;;;;;;;4.20;1.63;;;11.30;99.90;;;;;;5111187;28;20055;-65
2021/05/17 04:31:53;;;;;;;3.65;1.48;;;11.40;99.90;;;;;;5112743;28;20033;-64
2021/05/17 04:34:19;;;;;;;2.10;1.48;;;11.40;99.90;;;;;;5110861;28;20035;-63
2021/05/17 04:36:45;;;;;;;1.60;1.23;;;11.40;99.90;;;;;;5111047;28;20134;-65
2021/05/17 04:39:10;;;;;;;9.07;1.55;;;11.40;99.90;;;;;;5110747;28;20027;-65
2021/05/17 04:41:36;;;;;;;3.58;1.38;;;11.40;99.90;;;;;;5112491;28;20024;-65
2021/05/17 04:44:02;;;;;;;2.08;1.20;;;11.40;99.90;;;;;;5110432;28;20070;-65
2021/05/17 04:46:27;;;;;;;4.70;1.80;;;11.30;99.90;;;;;;5111247;28;20108;-65
2021/05/17 04:48:53;;;;;;;1.90;1.65;;;11.30;99.90;;;;;;5112604;28;20429;-65
2021/05/17 04:51:21;;;;;;;3.28;1.45;;;11.30;99.90;;;;;;5110515;28;20027;-64
2021/05/17 04:53:47;;;;;;;2.22;1.20;;;11.20;99.90;;;;;;5110965;28;20028;-66
2021/05/17 04:56:13;;;;;;;3.30;1.30;;;11.20;99.90;;;;;;5110457;28;20031;-65
2021/05/17 04:58:39;;;;;;;2.45;1.20;;;11.20;99.90;;;;;;5110258;28;20084;-64
2021/05/17 05:01:05;;;;;;;3.20;1.33;;;11.20;99.90;;;;;;5110416;28;20114;-65
2021/05/17 05:03:30;;;;;;;3.15;1.48;;;11.30;99.90;;;;;;5112093;28;20357;-65
2021/05/17 05:05:58;;;;;;;6.45;1.40;;;11.20;99.90;;;;;;5110491;28;20025;-65
2021/05/17 05:08:24;;;;;;;4.15;1.15;;;11.30;99.90;;;;;;5109829;28;20456;-65
2021/05/17 05:10:49;;;;;;;1.95;1.00;;;11.30;99.90;;;;;;5110589;28;20380;-65
2021/05/17 05:13:15;;;;;;;1.58;1.38;;;11.30;99.90;;;;;;5109895;28;20028;-65
2021/05/17 05:15:41;;;;;;;7.05;1.30;;;11.30;99.90;;;;;;5111323;28;20099;-65
2021/05/17 05:18:06;;;;;;;1.90;1.20;;;11.40;99.90;;;;;;5109337;28;20059;-64
2021/05/17 05:20:33;;;;;;;7.68;1.30;;;11.50;99.90;;;;;;5111067;28;20032;-64
2021/05/17 05:23:01;;;;;;;2.85;1.52;;;11.40;99.90;;;;;;5110813;28;20031;-64
2021/05/17 05:25:33;;;;;;;3.75;1.38;;;11.50;99.90;;;;;;5111494;28;20102;-65
2021/05/17 05:28:00;;;;;;;2.58;1.63;;;11.60;99.90;;;;;;5106893;28;20036;-64
2021/05/17 05:30:54;;;;;;;4.82;1.60;;;11.60;99.90;;;;;;5090805;28;20361;-66
2021/05/17 05:33:15;;;;;;;2.00;1.50;;;11.60;99.90;;;;;;5089276;28;20437;-65
2021/05/17 05:35:43;;;;;;;4.88;1.48;;;11.50;99.90;;;;;;5088150;28;20470;-64
2021/05/17 05:38:09;;;;;;;2.17;1.45;;;11.60;99.90;;;;;;5087652;28;20153;-66
2021/05/17 05:40:35;;;;;;;2.08;1.40;;;11.60;99.90;;;;;;5089317;28;20020;-64
2021/05/17 05:43:01;;;;;;;4.95;1.70;;;11.60;99.90;;;;;;5087784;28;20051;-66
2021/05/17 05:45:27;;;;;;;1.42;0.95;;;11.60;99.90;;;;;;5109613;28;20020;-66
2021/05/17 05:47:53;;;;;;;3.92;2.08;;;11.90;99.90;;;;;;5107590;28;20481;-67
2021/05/17 05:50:19;;;;;;;3.20;1.30;;;12.40;99.90;;;;;;5107551;28;20023;-66
2021/05/17 05:52:45;;;;;;;1.30;1.20;;;12.50;99.90;;;;;;5107947;28;20115;-66
2021/05/17 05:55:12;;;;;;;6.47;1.92;;;12.60;99.90;;;;;;5109093;28;20428;-66
2021/05/17 05:57:42;;;;;;;1.50;0.93;;;12.30;99.90;;;;;;5109422;28;20032;-65
2021/05/17 06:00:11;;;;;;;3.50;1.38;;;12.20;99.90;;;;;;5107191;28;20119;-66
2021/05/17 06:02:38;;;;;;;4.80;1.50;;;12.10;99.90;;;;;;5108931;28;20032;-65
2021/05/17 06:05:05;;;;;;;2.78;1.13;;;12.20;99.90;;;;;;5108723;28;20039;-66
2021/05/17 06:07:31;;;;;;;3.65;1.13;;;12.20;99.90;;;;;;5108276;28;20031;-66
2021/05/17 06:09:57;;;;;;;1.60;1.05;;;12.10;99.90;;;;;;5107740;28;20043;-67
2021/05/17 06:12:23;;;;;;;3.03;1.20;;;12.10;99.90;;;;;;5108881;28;20479;-66
2021/05/17 06:14:55;;;;;;;3.05;1.10;;;12.10;99.90;;;;;;5108873;28;20122;-68
2021/05/17 06:17:21;;;;;;;2.97;1.50;;;12.10;99.90;;;;;;5106380;28;20124;-68
2021/05/17 06:19:47;;;;;;;4.68;1.55;;;12.00;99.90;;;;;;5107619;28;20024;-65
2021/05/17 06:22:13;;;;;;;2.25;0.90;;;12.10;99.90;;;;;;5109078;28;20102;-66
2021/05/17 06:24:39;;;;;;;2.17;0.98;;;12.00;99.90;;;;;;5107827;28;20059;-66
2021/05/17 06:27:05;;;;;;;2.75;1.05;;;11.90;99.90;;;;;;5106969;28;20058;-67
2021/05/17 06:29:31;;;;;;;2.88;0.80;;;11.90;99.90;;;;;;5107522;28;20030;-66
2021/05/17 06:31:58;;;;;;;2.55;0.82;;;11.90;99.90;;;;;;5107636;28;20023;-70
2021/05/17 06:34:24;;;;;;;2.95;0.70;;;11.80;99.90;;;;;;5109755;28;20028;-66
2021/05/17 06:36:49;;;;;;;3.50;1.10;;;11.80;99.90;;;;;;5111742;28;20069;-68
2021/05/17 06:39:15;;;;;;;1.35;0.82;;;11.70;99.90;;;;;;5112577;28;20031;-66
2021/05/17 06:41:41;;;;;;;2.85;1.20;;;11.70;99.90;;;;;;5111872;28;20084;-66
2021/05/17 06:44:08;;;;;;;2.60;1.00;;;11.70;99.90;;;;;;5093653;28;20023;-65
2021/05/17 06:46:34;;;;;;;4.78;0.85;;;11.70;99.90;;;;;;5094291;28;20135;-71
2021/05/17 06:49:00;;;;;;;5.55;1.00;;;11.80;99.90;;;;;;5111837;28;20031;-67
2021/05/17 06:51:26;;;;;;;1.90;1.30;;;11.90;99.90;;;;;;5111153;28;20464;-67
2021/05/17 06:53:56;;;;;;;2.83;0.90;;;11.90;99.90;;;;;;5111388;28;20164;-65
2021/05/17 06:56:41;;;;;;;2.92;0.90;;;12.00;99.90;;;;;;5110996;28;20144;-66
2021/05/17 06:59:13;;;;;;;2.78;1.00;;;12.00;99.90;;;;;;5111056;28;20039;-67
2021/05/17 07:01:39;;;;;;;2.00;0.80;;;12.10;99.90;;;;;;5112933;28;20023;-66
2021/05/17 07:04:05;;;;;;;2.35;0.90;;;12.20;99.90;;;;;;5111779;28;20400;-67
2021/05/17 07:06:34;;;;;;;4.15;1.40;;;12.10;99.90;;;;;;5094178;28;20032;-66
2021/05/17 07:11:49;;;;;;;5.65;1.15;;;12.30;99.90;;;;;;5102789;28;20058;-65
2021/05/17 07:14:15;;;;;;;3.55;1.30;;;12.30;99.90;;;;;;5089787;28;20020;-66
2021/05/17 07:16:41;;;;;;;1.30;1.15;;;12.40;99.90;;;;;;5091454;28;20193;-66
2021/05/17 07:19:07;;;;;;;4.70;1.10;;;12.50;99.90;;;;;;5091205;28;20096;-70
2021/05/17 07:24:20;;;;;;;5.68;0.80;;;12.80;99.90;;;;;;5091864;28;20436;-65
2021/05/17 07:26:47;;;;;;;3.50;1.17;;;13.00;99.90;;;;;;5090281;28;20076;-64
2021/05/17 07:29:13;;;;;;;2.88;0.98;;;13.60;99.90;;;;;;5106570;28;20036;-67
2021/05/17 07:31:39;;;;;;;1.20;0.88;;;13.90;99.90;;;;;;5112041;28;20077;-64
2021/05/17 07:34:06;;;;;;;2.08;0.77;;;13.90;99.90;;;;;;5108530;28;20023;-63
2021/05/17 07:36:32;;;;;;;1.85;1.08;;;13.70;99.90;;;;;;5111695;28;20161;-64
2021/05/17 07:38:57;;;;;;;2.88;0.93;;;13.90;99.90;;;;;;5111988;28;20028;-63
2021/05/17 07:41:23;;;;;;;5.78;1.80;;;13.80;99.90;;;;;;5110693;28;20046;-65
2021/05/17 07:43:49;;;;;;;3.78;1.10;;;13.90;99.90;;;;;;5109986;28;20495;-65
2021/05/17 07:46:15;;;;;;;2.65;1.10;;;13.80;99.90;;;;;;5109922;28;20036;-64
2021/05/17 07:51:26;;;;;;;2.83;0.68;;;14.20;99.90;;;;;;5104925;28;20081;-67
2021/05/17 07:53:52;;;;;;;4.07;0.95;;;14.30;99.90;;;;;;5089759;28;20035;-64
2021/05/17 07:56:18;;;;;;;3.17;0.60;;;14.30;99.90;;;;;;5090249;28;20147;-64
2021/05/17 07:58:44;;;;;;;5.40;0.85;;;14.50;99.90;;;;;;5089362;28;20059;-64
2021/05/17 08:01:13;;;;;;;5.10;0.93;;;15.00;99.90;;;;;;5089207;28;20042;-65
2021/05/17 08:03:39;;;;;;;1.65;0.50;;;15.40;99.90;;;;;;5094816;28;20149;-66
2021/05/17 08:06:05;;;;;;;4.35;0.70;;;15.10;99.90;;;;;;5111026;28;20494;-65
2021/05/17 08:08:30;;;;;;;2.95;0.82;;;14.90;99.90;;;;;;5111386;28;20031;-64
2021/05/17 08:10:56;;;;;;;2.17;0.60;;;14.50;99.90;;;;;;5110048;28;20031;-65
2021/05/17 08:13:22;;;;;;;4.35;0.70;;;14.50;99.90;;;;;;5110857;28;20214;-68
2021/05/17 08:15:48;;;;;;;3.42;0.90;;;14.00;99.90;;;;;;5110925;28;20461;-66
2021/05/17 08:18:14;;;;;;;4.63;1.90;;;13.70;99.90;;;;;;5110614;28;20043;-65
2021/05/17 08:20:39;;;;;;;6.63;1.13;;;13.50;99.90;;;;;;5111358;28;20024;-64
2021/05/17 08:23:06;;;;;;;5.50;1.17;;;13.20;99.90;;;;;;5109084;28;20394;-66
2021/05/17 08:25:32;;;;;;;2.92;1.00;;;13.10;99.90;;;;;;5111425;28;20039;-66
2021/05/17 08:27:58;;;;;;;6.07;0.93;;;13.30;99.90;;;;;;5109073;28;20036;-68
2021/05/17 08:30:25;;;;;;;4.03;0.80;;;13.60;99.90;;;;;;5109520;28;20028;-68
2021/05/17 08:32:51;;;;;;;4.25;0.95;;;14.00;99.90;;;;;;5111704;28;20028;-68
2021/05/17 08:35:17;;;;;;;4.90;0.68;;;14.00;99.90;;;;;;5109549;28;20409;-67
2021/05/17 08:37:43;;;;;;;4.45;1.05;;;14.00;99.90;;;;;;5110009;28;20035;-66
2021/05/17 08:40:09;;;;;;;2.53;0.63;;;14.10;99.90;;;;;;5111321;28;20145;-65
2021/05/17 08:42:35;;;;;;;5.43;1.60;;;14.00;99.90;;;;;;5112975;28;20465;-64
2021/05/17 08:45:01;;;;;;;2.58;0.88;;;13.80;99.90;;;;;;5112164;28;20092;-65
2021/05/17 08:47:27;;;;;;;7.03;1.08;;;13.50;99.90;;;;;;5110370;28;20032;-64
2021/05/17 08:49:53;;;;;;;9.60;1.30;;;13.00;99.90;;;;;;5110624;28;20019;-63
2021/05/17 08:52:19;;;;;;;3.20;1.25;;;12.90;99.90;;;;;;5095536;28;20043;-65
2021/05/17 08:54:45;;;;;;;3.80;0.80;;;12.80;99.90;;;;;;5089884;28;20097;-64
2021/05/17 08:57:14;;;;;;;1.60;0.68;;;13.00;99.90;;;;;;5089763;28;20032;-65
2021/05/17 08:59:39;;;;;;;3.65;0.73;;;13.10;99.90;;;;;;5090091;28;20024;-66
2021/05/17 09:02:05;;;;;;;5.07;1.65;;;13.30;99.90;;;;;;5089326;28;20024;-70
2021/05/17 09:04:31;;;;;;;3.45;1.27;;;13.50;99.90;;;;;;5091358;28;20032;-65
2021/05/17 09:06:57;;;;;;;5.13;1.42;;;13.60;99.90;;;;;;5091310;28;20035;-65
2021/05/17 09:09:26;;;;;;;3.63;1.10;;;13.80;99.90;;;;;;5089135;28;20028;-65
2021/05/17 09:11:59;;;;;;;5.40;1.10;;;13.90;99.90;;;;;;5090022;28;20145;-65
2021/05/17 09:14:27;;;;;;;4.03;1.10;;;14.20;99.90;;;;;;5089146;28;20353;-65
2021/05/17 09:17:02;;;;;;;7.43;1.05;;;14.50;99.90;;;;;;5089623;28;20048;-65
2021/05/17 09:19:29;;;;;;;3.38;0.60;;;14.90;99.90;;;;;;5089328;28;20074;-64
2021/05/17 09:22:02;;;;;;;5.18;0.68;;;15.10;99.90;;;;;;5089595;28;20035;-66
2021/05/17 09:24:50;;;;;;;3.03;0.75;;;15.30;99.90;;;;;;5088977;28;20104;-66
2021/05/17 09:27:21;;;;;;;4.43;0.73;;;15.40;99.90;;;;;;5088987;28;20038;-65
2021/05/17 09:29:49;;;;;;;1.77;0.68;;;15.40;99.90;;;;;;5091010;28;20130;-65
2021/05/17 09:32:24;;;;;;;8.07;1.13;;;15.30;99.90;;;;;;5089142;28;20111;-65
2021/05/17 09:35:01;;;;;;;5.45;1.05;;;15.10;99.90;;;;;;5089371;28;20040;-64
2021/05/17 09:37:40;;;;;;;1.88;0.68;;;14.80;99.90;;;;;;5088702;28;20032;-66
2021/05/17 09:40:20;;;;;;;5.00;0.75;;;14.70;99.90;;;;;;5089213;28;20170;-82
2021/05/17 09:43:02;;;;;;;3.78;0.90;;;14.80;99.90;;;;;;5089007;28;20362;-64
2021/05/17 09:45:38;;;;;;;3.08;0.90;;;14.40;99.90;;;;;;5090317;28;20043;-65
2021/05/17 09:48:19;;;;;;;2.50;0.50;;;14.10;99.90;;;;;;5088342;28;20485;-64
2021/05/17 09:50:58;;;;;;;2.95;0.65;;;13.90;99.90;;;;;;5088750;28;20035;-63
2021/05/17 09:53:27;;;;;;;2.63;0.68;;;13.50;99.90;;;;;;5105475;28;20028;-63
2021/05/17 09:55:53;;;;;;;0.80;0.40;;;13.40;99.90;;;;;;5094377;28;20062;-67
2021/05/17 09:58:31;;;;;;;3.85;0.50;;;13.50;99.90;;;;;;5086923;28;20032;-64
2021/05/17 10:01:14;;;;;;;1.38;0.50;;;13.50;99.90;;;;;;5089393;28;20028;-65
2021/05/17 10:03:48;;;;;;;0.68;0.30;;;14.20;99.90;;;;;;5087492;28;20064;-72
2021/05/17 10:06:19;;;;;;;2.35;0.50;;;14.90;99.90;;;;;;5087144;28;20028;-66
2021/05/17 10:08:45;;;;;;;0.50;0.40;;;15.40;99.90;;;;;;5087310;28;20062;-65
2021/05/17 10:11:11;;;;;;;3.45;0.40;;;15.70;99.90;;;;;;5087020;28;20266;-66
2021/05/17 10:13:37;;;;;;;3.85;0.98;;;15.50;99.90;;;;;;5089394;28;20035;-65
2021/05/17 10:16:09;;;;;;;3.10;0.47;;;15.30;99.90;;;;;;5088560;28;20326;-65
2021/05/17 10:18:36;;;;;;;1.08;0.30;;;14.90;99.90;;;;;;5087353;28;20048;-65
2021/05/17 10:21:05;;;;;;;4.28;0.80;;;14.60;99.90;;;;;;5088640;28;20040;-64
2021/05/17 10:23:31;;;;;;;3.15;0.63;;;14.50;99.90;;;;;;5106100;28;20104;-64
2021/05/17 10:26:12;;;;;;;1.30;0.55;;;14.50;99.90;;;;;;5109220;28;20036;-67
2021/05/17 10:28:41;;;;;;;1.93;0.73;;;14.70;99.90;;;;;;5108601;28;20035;-68
2021/05/17 10:31:09;;;;;;;1.50;0.98;;;15.60;99.90;;;;;;5107852;28;20270;-65
2021/05/17 10:33:35;;;;;;;1.27;0.50;;;15.80;99.90;;;;;;5107373;28;20027;-66
2021/05/17 10:36:05;;;;;;;9.57;1.73;;;15.80;99.90;;;;;;5107840;28;20027;-65
2021/05/17 10:38:45;;;;;;;2.78;0.80;;;15.90;99.90;;;;;;5106747;28;20409;-67
2021/05/17 10:46:53;;;;;;;4.90;0.60;;;17.50;99.90;;;;;;5109114;28;20066;-66
2021/05/17 10:49:24;;;;;;;;;;;17.50;99.90;;;;;;5108843;28;20080;-54
2021/05/17 10:51:53;;;;;;;0.80;0.30;;;17.70;99.90;;;;;;5107228;28;20030;-55
2021/05/17 10:54:22;;;;;;;2.42;0.50;;;18.00;99.90;;;;;;5106846;28;20099;-52
2021/05/17 11:02:15;;;;;;;1.25;0.43;;;18.60;99.90;;;;;;5107913;28;20034;-53
2021/05/17 11:04:52;;;;;;;1.10;0.35;;;18.90;99.90;;;;;;5108166;28;20028;-54
2021/05/17 11:07:25;;;;;;;1.42;0.20;;;18.70;97.90;;;;;;5106538;28;20158;-54
2021/05/17 11:10:08;;;;;;;7.05;0.50;;;18.60;97.00;;;;;;5105293;28;20413;-57
2021/05/17 11:12:36;;;;;;;0.82;0.60;;;18.10;97.00;;;;;;5105615;28;20395;-68
2021/05/17 11:15:14;;;;;;;3.40;0.30;;;17.80;98.00;;;;;;5103910;28;20043;-68
2021/05/17 11:18:02;;;;;;;2.47;0.70;;;17.40;98.30;;;;;;5102447;28;20063;-66
2021/05/17 11:20:45;;;;;;;1.45;0.38;;;17.20;99.30;;;;;;5104612;28;20028;-68
2021/05/17 11:23:33;;;;;;;1.98;0.60;;;17.30;99.10;;;;;;5109943;28;20562;-74
2021/05/17 11:26:11;;;;;;;1.90;0.30;;;16.80;98.50;;;;;;5107199;28;20391;-63
2021/05/17 11:28:40;;;;;;;4.22;0.40;;;16.80;98.70;;;;;;5105915;28;20054;-68
2021/05/17 11:31:15;;;;;;;1.92;0.50;;;16.70;98.20;;;;;;5105761;28;20067;-65
2021/05/17 11:33:48;;;;;;;4.85;0.73;;;16.50;98.10;;;;;;5101030;28;20023;-65
2021/05/17 11:36:36;;;;;;;4.55;0.40;;;16.90;98.30;;;;;;5103473;28;20031;-67
2021/05/17 11:39:11;;;;;;;1.38;0.22;;;17.20;98.30;;;;;;5108823;28;20027;-64
2021/05/17 11:41:58;;;;;;;2.10;0.30;;;17.10;97.30;;;;;;5107327;28;20039;-67
2021/05/17 11:44:39;;;;;;;2.33;0.60;;;16.60;98.10;;;;;;5104351;28;20032;-64
2021/05/17 11:47:08;;;;;;;10.43;0.40;;;16.30;99.20;;;;;;5107733;28;20385;-65
2021/05/17 11:49:38;;;;;;;6.30;0.50;;;16.10;99.50;;;;;;5095029;28;20122;-67
2021/05/17 11:52:10;;;;;;;1.13;0.30;;;16.10;99.90;;;;;;5106493;28;20380;-64
2021/05/17 11:54:45;;;;;;;1.88;0.30;;;16.00;99.90;;;;;;5105135;28;20127;-65
2021/05/17 11:57:11;;;;;;;5.95;0.60;;;15.30;99.90;;;;;;5110276;28;20052;-69
2021/05/17 11:59:37;;;;;;;1.88;0.43;;;15.10;99.90;;;;;;5102280;28;20153;-65
2021/05/17 12:02:09;;;;;;;4.13;0.50;;;15.10;99.90;;;;;;5108468;28;20075;-66
2021/05/17 12:04:36;;;;;;;3.20;0.63;;;15.40;99.90;;;;;;5093861;28;20369;-66
2021/05/17 12:07:09;;;;;;;3.80;0.45;;;15.60;99.90;;;;;;5107707;28;20047;-69
2021/05/17 12:09:54;;;;;;;3.63;0.50;;;15.80;99.90;;;;;;5108093;28;20096;-68
2021/05/17 12:12:21;;;;;;;1.85;0.35;;;16.20;99.90;;;;;;5108021;28;20035;-65
2021/05/17 12:14:51;;;;;;;4.15;0.75;;;15.90;99.90;;;;;;5110236;28;20038;-66
2021/05/17 12:17:28;;;;;;;2.80;0.40;;;15.70;99.90;;;;;;5102912;28;20483;-65
2021/05/17 12:19:56;;;;;;;4.50;0.50;;;15.90;99.90;;;;;;5088779;28;20030;-65
2021/05/17 12:22:34;;;;;;;7.65;0.90;;;16.00;99.90;;;;;;5098024;28;20028;-64
2021/05/17 12:25:01;;;;;;;5.70;0.77;;;16.50;99.90;;;;;;5110948;28;20295;-65
2021/05/17 12:27:27;;;;;;;1.92;0.40;;;17.20;99.90;;;;;;5108385;28;20036;-48
2021/05/17 12:29:58;;;;;;;2.08;0.43;;;17.80;99.90;;;;;;5108845;28;20104;-49
2021/05/17 12:32:32;;;;;;;2.10;0.47;;;17.80;99.90;;;;;;5096925;28;20024;-49
2021/05/17 12:35:00;;;;;;;1.08;0.28;;;18.00;99.90;;;;;;5090409;28;20266;-50
2021/05/17 12:37:30;;;;;;;3.50;0.32;;;18.80;99.90;;;;;;5089394;28;20028;-48
2021/05/17 12:40:21;;;;;;;1.98;0.45;;;19.40;99.90;;;;;;5088354;28;20039;-50
2021/05/17 12:42:57;;;;;;;1.40;0.27;;;19.80;98.70;;;;;;5088345;28;20025;-48
2021/05/17 12:45:23;;;;;;;0.50;0.10;;;19.70;98.40;;;;;;5086842;28;20127;-48
2021/05/17 12:47:49;;;;;;;2.25;0.85;;;19.10;99.80;;;;;;5089935;28;20156;-62
2021/05/17 12:50:24;;;;;;;1.90;0.50;;;19.10;99.90;;;;;;5093478;28;20043;-64
2021/05/17 12:53:09;;;;;;;0.93;0.28;;;18.60;98.30;;;;;;5104911;28;20039;-63
2021/05/17 12:55:49;;;;;;;1.65;0.40;;;17.60;99.00;;;;;;5110302;28;20027;-64
2021/05/17 12:58:28;;;;;;;2.53;0.35;;;16.90;99.90;;;;;;5107701;28;20252;-63
2021/05/17 13:00:55;;;;;;;4.20;0.60;;;16.30;99.90;;;;;;5107997;28;20115;-62
2021/05/17 13:03:31;;;;;;;2.20;0.52;;;16.00;99.90;;;;;;5107382;28;20051;-61
2021/05/17 13:06:08;;;;;;;0.55;0.10;;;16.00;99.90;;;;;;5109427;28;20031;-62
2021/05/17 13:08:37;;;;;;;1.33;0.38;;;16.30;99.90;;;;;;5108783;28;20469;-62
2021/05/17 13:11:29;;;;;;;3.17;0.20;;;16.70;99.90;;;;;;5108112;28;20061;-63
2021/05/17 13:14:12;;;;;;;2.70;0.30;;;16.90;99.90;;;;;;5107805;28;20027;-63
2021/05/17 13:16:44;;;;;;;5.75;0.20;;;16.60;99.90;;;;;;5107688;28;20134;-63
2021/05/17 13:22:19;;;;;;;2.53;0.30;;;17.00;99.90;;;;;;5109668;28;20079;-63
2021/05/17 13:30:44;;;;;;;0.98;0.20;;;17.70;99.90;;;;;;5108679;28;20035;-65
2021/05/17 13:33:36;;;;;;;0.75;0.10;;;17.40;99.90;;;;;;5107421;28;20027;-74
2021/05/17 13:36:06;;;;;;;2.05;0.30;;;17.40;99.50;;;;;;5097365;28;20055;-62